sensor_id;sensor_type;location;lat;lon;timestamp;temperature;humidity
72576;DHT22;60613;48.658;2.328;2022-11-15T07:02:38;21.10;46.80
72576;DHT22;60613;48.658;2.328;2022-11-15T07:05:04;21.10;47.60
72576;DHT22;60613;48.658;2.328;2022-11-15T07:07:30;21.20;47.30
72576;DHT22;60613;48.658;2.328;2022-11-15T07:09:55;21.20;47.40
72576;DHT22;60613;48.658;2.328;2022-11-15T07:12:21;21.20;47.30
72576;DHT22;60613;48.658;2.328;2022-11-15T07:14:46;21.30;47.10
72576;DHT22;60613;48.658;2.328;2022-11-15T07:17:12;21.30;46.80
72576;DHT22;60613;48.658;2.328;2022-11-15T07:19:37;21.30;47.00
72576;DHT22;60613;48.658;2.328;2022-11-15T07:22:03;21.30;46.70
72576;DHT22;60613;48.658;2.328;2022-11-15T07:24:28;21.30;46.50
72576;DHT22;60613;48.658;2.328;2022-11-15T07:26:54;21.30;45.30
72576;DHT22;60613;48.658;2.328;2022-11-15T07:29:20;21.10;45.90
72576;DHT22;60613;48.658;2.328;2022-11-15T07:31:45;21.00;45.70
72576;DHT22;60613;48.658;2.328;2022-11-15T07:34:11;20.90;45.80
72576;DHT22;60613;48.658;2.328;2022-11-15T07:36:36;20.90;45.80
72576;DHT22;60613;48.658;2.328;2022-11-15T07:39:02;20.90;45.70
72576;DHT22;60613;48.658;2.328;2022-11-15T07:41:28;20.70;45.70
72576;DHT22;60613;48.658;2.328;2022-11-15T07:43:54;20.60;46.00
72576;DHT22;60613;48.658;2.328;2022-11-15T07:46:20;20.50;46.90
72576;DHT22;60613;48.658;2.328;2022-11-15T07:48:46;20.60;47.50
72576;DHT22;60613;48.658;2.328;2022-11-15T07:51:16;20.60;48.90
72576;DHT22;60613;48.658;2.328;2022-11-15T07:53:42;20.80;47.10
72576;DHT22;60613;48.658;2.328;2022-11-15T07:56:09;21.00;46.80
72576;DHT22;60613;48.658;2.328;2022-11-15T07:58:35;21.10;46.50
72576;DHT22;60613;48.658;2.328;2022-11-15T08:01:05;21.20;46.30
72576;DHT22;60613;48.658;2.328;2022-11-15T08:03:31;21.30;46.30
72576;DHT22;60613;48.658;2.328;2022-11-15T08:05:57;21.30;46.10
72576;DHT22;60613;48.658;2.328;2022-11-15T08:08:23;21.40;46.00
72576;DHT22;60613;48.658;2.328;2022-11-15T08:10:49;21.40;46.00
72576;DHT22;60613;48.658;2.328;2022-11-15T08:13:15;21.40;45.60
72576;DHT22;60613;48.658;2.328;2022-11-15T08:15:41;21.50;45.70
72576;DHT22;60613;48.658;2.328;2022-11-15T08:18:13;21.50;45.90
72576;DHT22;60613;48.658;2.328;2022-11-15T08:21:01;21.60;46.60
72576;DHT22;60613;48.658;2.328;2022-11-15T08:23:27;21.60;46.30
72576;DHT22;60613;48.658;2.328;2022-11-15T08:25:53;21.60;46.50
72576;DHT22;60613;48.658;2.328;2022-11-15T08:28:23;21.70;46.90
72576;DHT22;60613;48.658;2.328;2022-11-15T08:30:49;21.70;46.70
72576;DHT22;60613;48.658;2.328;2022-11-15T08:33:14;21.70;47.00
72576;DHT22;60613;48.658;2.328;2022-11-15T08:35:43;21.70;48.10
72576;DHT22;60613;48.658;2.328;2022-11-15T08:38:09;21.70;48.70
72576;DHT22;60613;48.658;2.328;2022-11-15T08:40:35;21.70;48.00
72576;DHT22;60613;48.658;2.328;2022-11-15T08:43:01;21.70;47.70
72576;DHT22;60613;48.658;2.328;2022-11-15T08:45:28;21.80;47.90
72576;DHT22;60613;48.658;2.328;2022-11-15T08:47:54;21.90;48.20
72576;DHT22;60613;48.658;2.328;2022-11-15T08:50:20;21.90;48.20
72576;DHT22;60613;48.658;2.328;2022-11-15T08:52:46;22.00;48.50
72576;DHT22;60613;48.658;2.328;2022-11-15T08:55:13;22.00;47.90
72576;DHT22;60613;48.658;2.328;2022-11-15T08:57:39;22.00;47.80
72576;DHT22;60613;48.658;2.328;2022-11-15T09:00:05;22.00;47.80
72576;DHT22;60613;48.658;2.328;2022-11-15T09:02:31;22.00;47.60
72576;DHT22;60613;48.658;2.328;2022-11-15T09:04:57;22.00;47.50
72576;DHT22;60613;48.658;2.328;2022-11-15T09:07:22;22.00;47.40
72576;DHT22;60613;48.658;2.328;2022-11-15T09:09:48;22.00;47.50
72576;DHT22;60613;48.658;2.328;2022-11-15T09:12:14;22.00;47.20
72576;DHT22;60613;48.658;2.328;2022-11-15T09:14:39;22.10;47.50
72576;DHT22;60613;48.658;2.328;2022-11-15T09:17:07;22.10;47.20
72576;DHT22;60613;48.658;2.328;2022-11-15T09:19:34;22.10;47.20
72576;DHT22;60613;48.658;2.328;2022-11-15T09:21:59;22.10;47.20
72576;DHT22;60613;48.658;2.328;2022-11-15T09:24:25;22.10;47.20
72576;DHT22;60613;48.658;2.328;2022-11-15T09:26:51;22.10;46.80
72576;DHT22;60613;48.658;2.328;2022-11-15T09:29:17;22.10;46.40
72576;DHT22;60613;48.658;2.328;2022-11-15T09:31:43;22.10;46.60
72576;DHT22;60613;48.658;2.328;2022-11-15T09:34:09;22.20;46.70
72576;DHT22;60613;48.658;2.328;2022-11-15T09:36:35;22.20;46.70
72576;DHT22;60613;48.658;2.328;2022-11-15T09:39:00;22.20;46.60
72576;DHT22;60613;48.658;2.328;2022-11-15T09:41:58;22.20;46.60
72576;DHT22;60613;48.658;2.328;2022-11-15T09:48:30;22.20;46.70
72576;DHT22;60613;48.658;2.328;2022-11-15T09:50:52;22.20;46.50
72576;DHT22;60613;48.658;2.328;2022-11-15T09:54:31;22.10;46.70
72576;DHT22;60613;48.658;2.328;2022-11-15T09:56:28;22.10;46.90
72576;DHT22;60613;48.658;2.328;2022-11-15T09:59:18;22.10;47.10
72576;DHT22;60613;48.658;2.328;2022-11-15T10:04:38;22.10;47.10
72576;DHT22;60613;48.658;2.328;2022-11-15T10:07:21;22.10;47.00
72576;DHT22;60613;48.658;2.328;2022-11-15T10:12:15;22.20;47.20
72576;DHT22;60613;48.658;2.328;2022-11-15T10:14:41;22.20;47.50
72576;DHT22;60613;48.658;2.328;2022-11-15T10:20:02;22.20;47.10
72576;DHT22;60613;48.658;2.328;2022-11-15T10:22:44;22.20;47.50
72576;DHT22;60613;48.658;2.328;2022-11-15T10:25:22;22.30;47.10
72576;DHT22;60613;48.658;2.328;2022-11-15T10:28:06;22.20;47.30
72576;DHT22;60613;48.658;2.328;2022-11-15T10:30:49;22.20;47.50
72576;DHT22;60613;48.658;2.328;2022-11-15T10:33:36;22.20;47.30
72576;DHT22;60613;48.658;2.328;2022-11-15T10:41:23;22.10;47.30
72576;DHT22;60613;48.658;2.328;2022-11-15T10:46:33;22.10;47.30
72576;DHT22;60613;48.658;2.328;2022-11-15T10:49:17;22.10;47.30
72576;DHT22;60613;48.658;2.328;2022-11-15T10:52:14;22.10;48.30
72576;DHT22;60613;48.658;2.328;2022-11-15T10:54:53;22.10;47.40
72576;DHT22;60613;48.658;2.328;2022-11-15T10:57:26;22.00;47.30
72576;DHT22;60613;48.658;2.328;2022-11-15T11:00:06;22.00;47.40
72576;DHT22;60613;48.658;2.328;2022-11-15T11:02:45;22.00;47.30
72576;DHT22;60613;48.658;2.328;2022-11-15T11:05:33;22.00;47.40
72576;DHT22;60613;48.658;2.328;2022-11-15T11:10:37;22.00;47.40
72576;DHT22;60613;48.658;2.328;2022-11-15T11:13:14;22.10;47.30
72576;DHT22;60613;48.658;2.328;2022-11-15T11:15:43;22.00;47.40
72576;DHT22;60613;48.658;2.328;2022-11-15T11:18:26;22.00;47.30
72576;DHT22;60613;48.658;2.328;2022-11-15T11:21:04;22.10;47.40
72576;DHT22;60613;48.658;2.328;2022-11-15T11:23:52;22.10;47.30
72576;DHT22;60613;48.658;2.328;2022-11-15T11:40:43;22.10;47.40
72576;DHT22;60613;48.658;2.328;2022-11-15T11:49:10;22.10;47.30
72576;DHT22;60613;48.658;2.328;2022-11-15T11:54:58;22.20;47.20
72576;DHT22;60613;48.658;2.328;2022-11-15T11:59:55;22.20;47.20
72576;DHT22;60613;48.658;2.328;2022-11-15T12:04:53;22.20;47.10
72576;DHT22;60613;48.658;2.328;2022-11-15T12:07:29;22.20;47.00
72576;DHT22;60613;48.658;2.328;2022-11-15T12:10:20;22.10;47.00
72576;DHT22;60613;48.658;2.328;2022-11-15T12:13:04;22.10;47.00
72576;DHT22;60613;48.658;2.328;2022-11-15T12:15:38;22.10;47.10
72576;DHT22;60613;48.658;2.328;2022-11-15T12:18:04;22.10;47.20
72576;DHT22;60613;48.658;2.328;2022-11-15T12:20:35;22.10;47.40
72576;DHT22;60613;48.658;2.328;2022-11-15T12:23:20;22.00;47.30
72576;DHT22;60613;48.658;2.328;2022-11-15T12:25:56;22.00;47.40
72576;DHT22;60613;48.658;2.328;2022-11-15T12:33:49;22.00;47.50
72576;DHT22;60613;48.658;2.328;2022-11-15T12:41:40;22.00;47.50
72576;DHT22;60613;48.658;2.328;2022-11-15T12:59:54;22.00;47.40
72576;DHT22;60613;48.658;2.328;2022-11-15T13:02:30;22.00;47.30
72576;DHT22;60613;48.658;2.328;2022-11-15T13:20:18;22.00;47.40
72576;DHT22;60613;48.658;2.328;2022-11-15T13:23:07;22.00;47.60
72576;DHT22;60613;48.658;2.328;2022-11-15T13:28:42;22.00;47.50
72576;DHT22;60613;48.658;2.328;2022-11-15T13:31:28;22.00;47.60
72576;DHT22;60613;48.658;2.328;2022-11-15T13:33:57;22.00;47.60
72576;DHT22;60613;48.658;2.328;2022-11-15T13:36:28;22.00;47.60
72576;DHT22;60613;48.658;2.328;2022-11-15T13:38:56;22.00;47.60
72576;DHT22;60613;48.658;2.328;2022-11-15T13:41:28;22.00;47.60
72576;DHT22;60613;48.658;2.328;2022-11-15T13:43:55;22.00;48.80
72576;DHT22;60613;48.658;2.328;2022-11-15T13:49:00;21.90;48.80
72576;DHT22;60613;48.658;2.328;2022-11-15T13:51:35;21.90;47.80
72576;DHT22;60613;48.658;2.328;2022-11-15T13:56:44;21.90;47.90
72576;DHT22;60613;48.658;2.328;2022-11-15T14:01:42;21.90;48.00
72576;DHT22;60613;48.658;2.328;2022-11-15T14:04:13;22.00;47.90
72576;DHT22;60613;48.658;2.328;2022-11-15T14:06:55;22.00;48.10
72576;DHT22;60613;48.658;2.328;2022-11-15T14:09:39;22.10;47.90
72576;DHT22;60613;48.658;2.328;2022-11-15T14:12:34;22.10;47.70
72576;DHT22;60613;48.658;2.328;2022-11-15T14:15:18;22.10;47.60
72576;DHT22;60613;48.658;2.328;2022-11-15T14:17:43;22.20;47.40
72576;DHT22;60613;48.658;2.328;2022-11-15T14:22:58;22.20;47.80
72576;DHT22;60613;48.658;2.328;2022-11-15T14:25:25;22.10;47.50
72576;DHT22;60613;48.658;2.328;2022-11-15T14:30:33;22.20;47.60
72576;DHT22;60613;48.658;2.328;2022-11-15T14:32:58;22.20;47.60
72576;DHT22;60613;48.658;2.328;2022-11-15T14:35:24;22.20;47.50
72576;DHT22;60613;48.658;2.328;2022-11-15T14:37:50;22.30;47.40
72576;DHT22;60613;48.658;2.328;2022-11-15T14:40:18;22.30;47.20
72576;DHT22;60613;48.658;2.328;2022-11-15T14:42:45;22.30;47.30
72576;DHT22;60613;48.658;2.328;2022-11-15T14:45:20;22.30;48.40
72576;DHT22;60613;48.658;2.328;2022-11-15T14:47:46;22.30;47.30
72576;DHT22;60613;48.658;2.328;2022-11-15T14:50:20;22.30;47.40
72576;DHT22;60613;48.658;2.328;2022-11-15T14:52:47;22.30;47.50
72576;DHT22;60613;48.658;2.328;2022-11-15T14:55:26;22.30;48.50
72576;DHT22;60613;48.658;2.328;2022-11-15T14:57:54;22.30;47.70
72576;DHT22;60613;48.658;2.328;2022-11-15T15:00:20;22.30;48.90
72576;DHT22;60613;48.658;2.328;2022-11-15T15:02:47;22.30;48.30
72576;DHT22;60613;48.658;2.328;2022-11-15T15:07:47;22.30;47.40
72576;DHT22;60613;48.658;2.328;2022-11-15T15:10:14;22.40;47.40
72576;DHT22;60613;48.658;2.328;2022-11-15T15:12:40;22.30;47.70
72576;DHT22;60613;48.658;2.328;2022-11-15T15:15:09;22.30;47.50
72576;DHT22;60613;48.658;2.328;2022-11-15T15:17:37;22.30;47.40
72576;DHT22;60613;48.658;2.328;2022-11-15T15:20:02;22.40;47.70
72576;DHT22;60613;48.658;2.328;2022-11-15T15:22:29;22.40;47.50
72576;DHT22;60613;48.658;2.328;2022-11-15T15:24:55;22.40;47.50
72576;DHT22;60613;48.658;2.328;2022-11-15T15:27:21;22.40;47.30
72576;DHT22;60613;48.658;2.328;2022-11-15T15:29:46;22.40;47.90
72576;DHT22;60613;48.658;2.328;2022-11-15T15:32:12;22.30;47.80
72576;DHT22;60613;48.658;2.328;2022-11-15T15:34:38;22.40;47.90
72576;DHT22;60613;48.658;2.328;2022-11-15T15:39:48;22.30;48.30
72576;DHT22;60613;48.658;2.328;2022-11-15T15:42:14;22.20;49.80
72576;DHT22;60613;48.658;2.328;2022-11-15T15:44:40;22.20;48.70
72576;DHT22;60613;48.658;2.328;2022-11-15T15:47:18;22.20;48.40
72576;DHT22;60613;48.658;2.328;2022-11-15T15:49:44;22.20;48.70
72576;DHT22;60613;48.658;2.328;2022-11-15T15:52:10;22.20;48.70
72576;DHT22;60613;48.658;2.328;2022-11-15T15:54:37;22.20;50.00
72576;DHT22;60613;48.658;2.328;2022-11-15T15:57:02;22.20;48.90
72576;DHT22;60613;48.658;2.328;2022-11-15T15:59:28;22.20;49.10
72576;DHT22;60613;48.658;2.328;2022-11-15T16:01:54;22.20;49.20
72576;DHT22;60613;48.658;2.328;2022-11-15T16:04:19;22.20;49.10
72576;DHT22;60613;48.658;2.328;2022-11-15T16:06:45;22.20;49.20
72576;DHT22;60613;48.658;2.328;2022-11-15T16:09:15;22.20;49.30
72576;DHT22;60613;48.658;2.328;2022-11-15T16:11:41;22.20;49.10
72576;DHT22;60613;48.658;2.328;2022-11-15T16:14:08;22.30;49.10
72576;DHT22;60613;48.658;2.328;2022-11-15T16:16:34;22.30;49.00
72576;DHT22;60613;48.658;2.328;2022-11-15T16:19:00;22.30;49.10
72576;DHT22;60613;48.658;2.328;2022-11-15T16:21:27;22.40;49.00
72576;DHT22;60613;48.658;2.328;2022-11-15T16:23:53;22.40;49.10
72576;DHT22;60613;48.658;2.328;2022-11-15T16:26:24;22.40;49.10
72576;DHT22;60613;48.658;2.328;2022-11-15T16:28:50;22.30;49.00
72576;DHT22;60613;48.658;2.328;2022-11-15T16:31:16;22.40;49.20
72576;DHT22;60613;48.658;2.328;2022-11-15T16:33:44;22.40;50.40
72576;DHT22;60613;48.658;2.328;2022-11-15T16:36:30;22.40;49.10
72576;DHT22;60613;48.658;2.328;2022-11-15T16:38:57;22.40;49.20
72576;DHT22;60613;48.658;2.328;2022-11-15T16:41:23;22.40;49.20
72576;DHT22;60613;48.658;2.328;2022-11-15T16:43:48;22.40;49.30
72576;DHT22;60613;48.658;2.328;2022-11-15T16:46:34;22.40;49.30
72576;DHT22;60613;48.658;2.328;2022-11-15T16:49:00;22.40;49.20
72576;DHT22;60613;48.658;2.328;2022-11-15T16:51:26;22.40;49.20
72576;DHT22;60613;48.658;2.328;2022-11-15T16:53:51;22.50;49.20
72576;DHT22;60613;48.658;2.328;2022-11-15T16:58:48;22.50;49.20
72576;DHT22;60613;48.658;2.328;2022-11-15T17:01:17;22.50;49.00
72576;DHT22;60613;48.658;2.328;2022-11-15T17:03:43;22.60;49.00
72576;DHT22;60613;48.658;2.328;2022-11-15T17:06:10;22.60;49.10
72576;DHT22;60613;48.658;2.328;2022-11-15T17:08:37;22.60;49.10
72576;DHT22;60613;48.658;2.328;2022-11-15T17:11:10;22.50;49.30
72576;DHT22;60613;48.658;2.328;2022-11-15T17:13:36;22.50;49.30
72576;DHT22;60613;48.658;2.328;2022-11-15T17:16:10;22.50;49.10
72576;DHT22;60613;48.658;2.328;2022-11-15T17:18:36;22.50;49.30
72576;DHT22;60613;48.658;2.328;2022-11-15T17:21:07;22.50;49.40
72576;DHT22;60613;48.658;2.328;2022-11-15T17:23:34;22.50;49.20
72576;DHT22;60613;48.658;2.328;2022-11-15T17:26:04;22.50;49.10
72576;DHT22;60613;48.658;2.328;2022-11-15T17:28:33;22.50;49.40
72576;DHT22;60613;48.658;2.328;2022-11-15T17:31:00;22.50;50.30
72576;DHT22;60613;48.658;2.328;2022-11-15T17:33:26;22.50;49.20
72576;DHT22;60613;48.658;2.328;2022-11-15T17:35:59;22.60;49.20
72576;DHT22;60613;48.658;2.328;2022-11-15T17:38:26;22.60;49.20
72576;DHT22;60613;48.658;2.328;2022-11-15T17:41:12;22.60;49.20
72576;DHT22;60613;48.658;2.328;2022-11-15T17:43:39;22.60;49.00
72576;DHT22;60613;48.658;2.328;2022-11-15T17:46:07;22.60;49.10
72576;DHT22;60613;48.658;2.328;2022-11-15T17:48:33;22.60;49.20
72576;DHT22;60613;48.658;2.328;2022-11-15T17:51:00;22.60;49.10
72576;DHT22;60613;48.658;2.328;2022-11-15T17:53:27;22.60;49.60
72576;DHT22;60613;48.658;2.328;2022-11-15T17:56:03;22.60;49.20
72576;DHT22;60613;48.658;2.328;2022-11-15T17:58:33;22.60;49.00
72576;DHT22;60613;48.658;2.328;2022-11-15T18:03:43;22.60;49.60
72576;DHT22;60613;48.658;2.328;2022-11-15T18:06:09;22.70;49.20
72576;DHT22;60613;48.658;2.328;2022-11-15T18:08:35;22.70;49.20
72576;DHT22;60613;48.658;2.328;2022-11-15T18:11:10;22.70;49.40
72576;DHT22;60613;48.658;2.328;2022-11-15T18:13:37;22.70;49.10
72576;DHT22;60613;48.658;2.328;2022-11-15T18:16:04;22.70;49.00
72576;DHT22;60613;48.658;2.328;2022-11-15T18:18:32;22.70;48.90
72576;DHT22;60613;48.658;2.328;2022-11-15T18:21:15;22.70;49.10
72576;DHT22;60613;48.658;2.328;2022-11-15T18:23:42;22.70;49.80
72576;DHT22;60613;48.658;2.328;2022-11-15T18:26:10;22.70;49.10
72576;DHT22;60613;48.658;2.328;2022-11-15T18:28:39;22.70;49.40
72576;DHT22;60613;48.658;2.328;2022-11-15T18:31:15;22.60;49.00
72576;DHT22;60613;48.658;2.328;2022-11-15T18:33:42;22.60;48.80
72576;DHT22;60613;48.658;2.328;2022-11-15T18:36:14;22.60;48.70
72576;DHT22;60613;48.658;2.328;2022-11-15T18:38:40;22.60;48.80
72576;DHT22;60613;48.658;2.328;2022-11-15T18:41:06;22.60;49.30
72576;DHT22;60613;48.658;2.328;2022-11-15T18:43:32;22.50;49.00
72576;DHT22;60613;48.658;2.328;2022-11-15T18:46:12;22.50;48.90
72576;DHT22;60613;48.658;2.328;2022-11-15T18:48:40;22.50;48.90
72576;DHT22;60613;48.658;2.328;2022-11-15T18:51:08;22.50;48.80
72576;DHT22;60613;48.658;2.328;2022-11-15T18:53:34;22.50;48.90
72576;DHT22;60613;48.658;2.328;2022-11-15T18:56:01;22.50;49.00
72576;DHT22;60613;48.658;2.328;2022-11-15T18:58:30;22.50;49.00
72576;DHT22;60613;48.658;2.328;2022-11-15T19:01:03;22.50;49.00
72576;DHT22;60613;48.658;2.328;2022-11-15T19:03:38;22.50;49.20
72576;DHT22;60613;48.658;2.328;2022-11-15T19:06:09;22.40;49.20
72576;DHT22;60613;48.658;2.328;2022-11-15T19:08:36;22.40;49.30
72576;DHT22;60613;48.658;2.328;2022-11-15T19:11:07;22.40;49.30
72576;DHT22;60613;48.658;2.328;2022-11-15T19:13:32;22.40;49.30
72576;DHT22;60613;48.658;2.328;2022-11-15T19:16:02;22.40;49.30
72576;DHT22;60613;48.658;2.328;2022-11-15T19:18:29;22.40;49.20
72576;DHT22;60613;48.658;2.328;2022-11-15T19:20:55;22.40;49.30
72576;DHT22;60613;48.658;2.328;2022-11-15T19:23:24;22.40;49.40
72576;DHT22;60613;48.658;2.328;2022-11-15T19:25:58;22.40;49.40
72576;DHT22;60613;48.658;2.328;2022-11-15T19:28:25;22.40;49.30
72576;DHT22;60613;48.658;2.328;2022-11-15T19:30:52;22.40;49.40
72576;DHT22;60613;48.658;2.328;2022-11-15T19:33:17;22.40;49.30
72576;DHT22;60613;48.658;2.328;2022-11-15T19:35:44;22.40;49.30
72576;DHT22;60613;48.658;2.328;2022-11-15T19:38:10;22.40;49.50
72576;DHT22;60613;48.658;2.328;2022-11-15T19:40:35;22.40;49.60
72576;DHT22;60613;48.658;2.328;2022-11-15T19:43:01;22.30;49.60
72576;DHT22;60613;48.658;2.328;2022-11-15T19:45:27;22.30;49.60
72576;DHT22;60613;48.658;2.328;2022-11-15T19:47:52;22.30;49.70
72576;DHT22;60613;48.658;2.328;2022-11-15T19:50:18;22.30;49.80
72576;DHT22;60613;48.658;2.328;2022-11-15T19:52:44;22.20;49.70
72576;DHT22;60613;48.658;2.328;2022-11-15T19:55:09;22.20;49.70
72576;DHT22;60613;48.658;2.328;2022-11-15T19:57:35;22.30;49.90
72576;DHT22;60613;48.658;2.328;2022-11-15T20:00:01;22.30;49.90
72576;DHT22;60613;48.658;2.328;2022-11-15T20:02:26;22.20;49.70
72576;DHT22;60613;48.658;2.328;2022-11-15T20:04:52;22.20;49.80
72576;DHT22;60613;48.658;2.328;2022-11-15T20:07:17;22.30;49.90
72576;DHT22;60613;48.658;2.328;2022-11-15T20:09:43;22.30;49.50
72576;DHT22;60613;48.658;2.328;2022-11-15T20:12:09;22.50;49.30
72576;DHT22;60613;48.658;2.328;2022-11-15T20:14:34;22.50;49.50
72576;DHT22;60613;48.658;2.328;2022-11-15T20:17:00;22.60;49.50
72576;DHT22;60613;48.658;2.328;2022-11-15T20:19:26;22.60;49.50
72576;DHT22;60613;48.658;2.328;2022-11-15T20:21:51;22.60;49.40
72576;DHT22;60613;48.658;2.328;2022-11-15T20:24:17;22.60;49.20
72576;DHT22;60613;48.658;2.328;2022-11-15T20:26:42;22.70;49.20
72576;DHT22;60613;48.658;2.328;2022-11-15T20:29:09;22.60;49.20
72576;DHT22;60613;48.658;2.328;2022-11-15T20:31:35;22.70;49.20
72576;DHT22;60613;48.658;2.328;2022-11-15T20:34:01;22.70;49.20
72576;DHT22;60613;48.658;2.328;2022-11-15T20:36:27;22.70;49.20
72576;DHT22;60613;48.658;2.328;2022-11-15T20:39:01;22.80;49.20
72576;DHT22;60613;48.658;2.328;2022-11-15T20:41:27;22.80;49.20
72576;DHT22;60613;48.658;2.328;2022-11-15T20:43:53;22.80;49.20
72576;DHT22;60613;48.658;2.328;2022-11-15T20:46:19;22.90;49.20
72576;DHT22;60613;48.658;2.328;2022-11-15T20:48:45;22.80;49.10
72576;DHT22;60613;48.658;2.328;2022-11-15T20:51:15;22.90;49.20
72576;DHT22;60613;48.658;2.328;2022-11-15T20:53:42;22.80;49.30
72576;DHT22;60613;48.658;2.328;2022-11-15T20:56:18;22.90;49.30
72576;DHT22;60613;48.658;2.328;2022-11-15T20:58:44;22.90;49.30
72576;DHT22;60613;48.658;2.328;2022-11-15T21:01:12;22.90;49.30
72576;DHT22;60613;48.658;2.328;2022-11-15T21:03:38;22.90;49.30
72576;DHT22;60613;48.658;2.328;2022-11-15T21:06:04;22.90;49.30
72576;DHT22;60613;48.658;2.328;2022-11-15T21:08:30;22.90;49.20
72576;DHT22;60613;48.658;2.328;2022-11-15T21:11:16;22.90;49.20
72576;DHT22;60613;48.658;2.328;2022-11-15T21:14:00;23.00;49.20
72576;DHT22;60613;48.658;2.328;2022-11-15T21:16:25;23.00;49.10
72576;DHT22;60613;48.658;2.328;2022-11-15T21:18:51;23.10;49.10
72576;DHT22;60613;48.658;2.328;2022-11-15T21:21:17;23.10;49.10
72576;DHT22;60613;48.658;2.328;2022-11-15T21:23:43;23.10;49.00
72576;DHT22;60613;48.658;2.328;2022-11-15T21:26:08;23.10;49.00
72576;DHT22;60613;48.658;2.328;2022-11-15T21:28:34;23.10;48.90
72576;DHT22;60613;48.658;2.328;2022-11-15T21:31:00;23.10;48.80
72576;DHT22;60613;48.658;2.328;2022-11-15T21:33:26;23.10;48.70
72576;DHT22;60613;48.658;2.328;2022-11-15T21:35:56;23.10;48.80
72576;DHT22;60613;48.658;2.328;2022-11-15T21:38:23;23.10;48.60
72576;DHT22;60613;48.658;2.328;2022-11-15T21:40:52;23.10;48.30
72576;DHT22;60613;48.658;2.328;2022-11-15T21:43:19;22.80;45.50
72576;DHT22;60613;48.658;2.328;2022-11-15T21:45:55;22.30;46.00
72576;DHT22;60613;48.658;2.328;2022-11-15T21:48:21;22.00;46.50
72576;DHT22;60613;48.658;2.328;2022-11-15T21:50:59;22.10;47.70
72576;DHT22;60613;48.658;2.328;2022-11-15T21:53:26;22.20;48.10
72576;DHT22;60613;48.658;2.328;2022-11-15T21:55:52;22.30;48.10
72576;DHT22;60613;48.658;2.328;2022-11-15T21:58:18;22.40;48.00
